Millenium Air

Millenium Air Since 1998



 METAR AND TAF INFORMATION
METAR FOR LFST
ADDS - METARS form results

(0627 UTC 18 April 2021)
Data provider http://aviationweather.gov/metar/data/
 
METAR text: LFST 180600Z AUTO 35005KT 9999 FEW039 SCT045 BKN054 06/02 Q1021 NOSIG
Conditions at: LFST (STRASBOURG/ENTZH, FR) observed 0600 UTC 18 April 2021
Temperature: 6.0°C (43°F)
Dewpoint: 2.0°C (36°F) [RH = 75%]
Pressure (altimeter): 30.15 inches Hg (1021.0 mb)
Winds: from the N (350 degrees) at 6 MPH (5 knots; 2.6 m/s)
Visibility: 6 or more miles (10+ km)
Ceiling: 5400 feet AGL
Clouds: few clouds at 3900 feet AGL
scattered clouds at 4500 feet AGL
broken clouds at 5400 feet AGL
Weather: no significant weather observed at this time

METAR text: LFST 180530Z AUTO 35005KT 9999 FEW039 OVC066 06/02 Q1020 NOSIG
Conditions at: LFST (STRASBOURG/ENTZH, FR) observed 0530 UTC 18 April 2021
Temperature: 6.0°C (43°F)
Dewpoint: 2.0°C (36°F) [RH = 75%]
Pressure (altimeter): 30.12 inches Hg (1020.0 mb)
Winds: from the N (350 degrees) at 6 MPH (5 knots; 2.6 m/s)
Visibility: 6 or more miles (10+ km)
Ceiling: 6600 feet AGL
Clouds: few clouds at 3900 feet AGL
overcast cloud deck at 6600 feet AGL
Weather: no significant weather observed at this time

Forecast for: LFST (STRASBOURG/ENTZH, FR)
Text: TAF LFST 180500Z 1806/1906 01006KT 9999 FEW050 BKN060
Forecast period: 0600 UTC 18 April 2021 to 0600 UTC 19 April 2021
Forecast type: FROM: standard forecast or significant change
Winds: from the N (10 degrees) at 7 MPH (6 knots; 3.1 m/s)
Visibility: 6 or more miles (10+ km)
Ceiling: 6000 feet AGL
Clouds: few clouds at 5000 feet AGL
broken clouds at 6000 feet AGL
Weather: no significant weather forecast for this period
Text: TEMPO 1812/1818 FEW040TCU
Forecast period: 1200 to 1800 UTC 18 April 2021
Forecast type: TEMPORARY: The following changes expected for less than half the time period
Visibility: missing
Ceiling: at least 12,000 feet AGL
Clouds: few clouds at 4000 feet AGL
Weather: no significant weather forecast for this period
Text: PROB40
Forecast period: 0200 to 0600 UTC 19 April 2021
Forecast type: TEMPORARY: The following changes expected for less than half the time period
Visibility: 1.86 miles (2.99 km)
Ceiling: unknown
Clouds: missing
Weather: BR  (mist)

 AIRPORT MAP

 RUNWAY INFORMATION
Runway 05 Runway length 7874 ft Runway width 148 ft
Runway elevation 503 ft Runway displaced threshold 0 ft Runway heading 49
Runway 23 Runway length 7874 ft Runway width 148 ft
Runway elevation 491 ft Runway displaced threshold 0 ft Runway heading 229

 AIRPORT FREQUENCIES
Type APP Name STRASBOURG Frequency 119.45 MHZ
Type ATIS Name STRASBOURG Frequency 126.925 MHZ
Type GND Name STRASBOURG Frequency 121.8 MHZ
Type TWR Name STRASBOURG Frequency 126.875 MHZ

 AIRPORT NEAR NAVIGATION AIDS
Type VOR-DME Name Saverne Frequency 110450 KHZ
Type VOR-DME Name Strasbourg Frequency 115600 KHZ